Coral Harbour Airport
CYZS : rendu visible

Aérodrome :











RETROUVEZ-NOUS SUR...

 
LOGIN :

S'inscrire | Disclaimer

   EN    FR    IT 

 









Légende :    VFR   VFR Marginal   IFR   IFR Intensif   IFR Très Intensif
Visi : 
Plafond : 
>= 8 km
>= 3000ft
5 à 8 km
1000 à 3000 ft
1500m à 5 km
500 à 1000 ft
800 à 1500m
200 à 500 ft
< 800m
< 200 ft
Symboles :   Orages  Brouillard  Fortes neiges  Fortes précipitations  Vent > 20 kt






- Altitude de l'aérodrome : 210 ft
- Code IATA : YZS


CYZS - Coral Harbour

DERNIER METAR :
  • 281900Z 34007KT 15SM FEW006 OVC023 M04/M08 A2999 RMK SF1SC8 SF TR SLP166

METARs EXPIRÉS :
  • 281800Z VRB07KT 15SM FEW006 OVC020 M06/M07 A2999 RMK SF1SC8 SF TR SLP165
  • 281700Z 31003KT 290V360 15SM FEW006 OVC020 M07/M08 A2999 RMK SF1SC7 SLP165

TAF TAF CYZS
Valide du 28 à 19h jusqu'au 29 à 07h UTC


281838Z 2819/2907 34008KT P6SM OVC015
TEMPO 2819/2907 BKN025 RMK NXT FCST BY 290100Z
FIR CZEG / Amérique du Nord



MET'MAP, la Météo Aéronautique d'un coup d'oeil ! - Copyright ORBIFLY Décembre 2007 - Disclaimer

ORBIFLY MET'MAP TEAM :

Programmation & Développement : Alexandra Zaïnal
Sur une idée originale de : Baudouin d'Aumeries
Assistance à la programmation : Marc-Olivier Méhu
Soutien technique & logistique : Manuel Goepfert

Contact : metmap@orbifly.com




SOURCES & CREDITS :

   NOAA       Earth
Advisory